Terminal Aerodrome Forecast
Issued by NWS Pocatello, ID

Home | Current Version | Previous Version | Text Only | Print | Product List | Glossary On
Versions: 1 2 3 4 5 6 7 8 9 10 11 12 13 14
000
FTUS45 KPIH 211141
TAFIDA
TAF
KIDA 211141Z 2112/2212 21011KT P6SM OVC010
     FM211800 21010KT P6SM SCT010 BKN015 OVC035
     FM212000 21008KT P6SM SCT025 BKN035 OVC050
     FM220300 19005KT P6SM SCT025 OVC035=

USA.gov is the U.S. government's official web portal to all federal, state and local government web resources and services.